createdAt,value
2019-05-03T00:00:58.164Z,97478.15
2019-05-03T00:05:06.805Z,97475.86
2019-05-03T00:09:15.243Z,97472.03
2019-05-03T00:13:21.874Z,97475.41
2019-05-03T00:17:28.930Z,97476.14
2019-05-03T00:21:34.628Z,97468.85
2019-05-03T00:25:41.832Z,97469.67
2019-05-03T00:29:47.616Z,97477.12
2019-05-03T00:34:10.219Z,97468.05
2019-05-03T00:38:16.892Z,97473.05
2019-05-03T00:42:22.735Z,97467.83
2019-05-03T00:46:28.511Z,97467.38
2019-05-03T00:50:34.206Z,97460.82
2019-05-03T00:54:39.891Z,97462.94
2019-05-03T00:58:49.865Z,97462.77
2019-05-03T01:02:55.593Z,97456.67
2019-05-03T01:07:02.267Z,97456.23
2019-05-03T01:11:08.375Z,97456.13
2019-05-03T01:15:16.141Z,97463.28
2019-05-03T01:19:22.731Z,97455.34
2019-05-03T01:23:28.509Z,97464.47
2019-05-03T01:27:34.322Z,97461.16
2019-05-03T01:31:42.063Z,97462.41
2019-05-03T01:35:47.393Z,97462.90
2019-05-03T01:39:53.092Z,97463.37
2019-05-03T01:43:58.869Z,97470.34
2019-05-03T01:48:06.402Z,97468.97
2019-05-03T01:52:28.843Z,97468.08
2019-05-03T01:56:34.534Z,97466.09
2019-05-03T02:00:42.296Z,97466.56
2019-05-03T02:04:49.524Z,97467.03
2019-05-03T02:08:55.210Z,97468.22
2019-05-03T02:13:01.698Z,97464.90
2019-05-03T02:17:07.461Z,97464.59
2019-05-03T02:21:13.181Z,97468.69
2019-05-03T02:25:18.892Z,97470.96
2019-05-03T02:29:24.566Z,97460.65
2019-05-03T02:33:32.717Z,97465.19
2019-05-03T02:37:39.218Z,97461.85
2019-05-03T02:41:47.947Z,97470.94
2019-05-03T02:46:07.215Z,97469.25
2019-05-03T02:50:16.674Z,97464.89
2019-05-03T02:54:22.242Z,97470.80
2019-05-03T02:58:27.925Z,97475.64
2019-05-03T03:02:36.530Z,97475.81
2019-05-03T03:06:45.733Z,97477.63
2019-05-03T03:10:55.669Z,97471.55
2019-05-03T03:15:05.937Z,97480.69
2019-05-03T03:19:15.879Z,97480.69
2019-05-03T03:23:26.270Z,97482.20
2019-05-03T03:27:36.369Z,97480.23
2019-05-03T03:31:48.306Z,97480.81
2019-05-03T03:36:01.090Z,97484.62
2019-05-03T03:40:01.519Z,97485.37
2019-05-03T03:44:07.863Z,97493.28
2019-05-03T03:48:18.084Z,97492.67
2019-05-03T03:52:25.571Z,97493.27
2019-05-03T03:56:46.036Z,97490.39
2019-05-03T04:00:46.204Z,97505.55
2019-05-03T04:04:50.933Z,97501.89
2019-05-03T04:08:56.851Z,97511.77
2019-05-03T04:13:05.452Z,97516.90
2019-05-03T04:17:15.065Z,97515.66
2019-05-03T04:21:21.406Z,97520.83
2019-05-03T04:25:28.316Z,97520.72
2019-05-03T04:29:36.309Z,97525.86
2019-05-03T04:33:42.106Z,97529.08
2019-05-03T04:37:55.885Z,97532.39
2019-05-03T04:42:01.861Z,97534.23
2019-05-03T04:46:13.071Z,97540.94
2019-05-03T04:50:18.787Z,97536.80
2019-05-03T04:54:29.190Z,97539.53
2019-05-03T04:58:36.400Z,97537.42
2019-05-03T05:02:42.404Z,97544.89
2019-05-03T05:06:48.109Z,97553.09
2019-05-03T05:10:55.948Z,97557.47
2019-05-03T05:15:01.326Z,97556.27
2019-05-03T05:19:11.377Z,97555.80
2019-05-03T05:23:17.141Z,97557.63
2019-05-03T05:27:27.403Z,97566.28
2019-05-03T05:31:33.104Z,97565.81
2019-05-03T05:35:38.807Z,97568.27
2019-05-03T05:39:44.820Z,97572.37
2019-05-03T05:43:50.556Z,97585.42
2019-05-03T05:48:00.581Z,97591.20
2019-05-03T05:52:06.324Z,97596.19
2019-05-03T05:56:16.665Z,97600.33
2019-05-03T06:00:35.975Z,97607.89
2019-05-03T06:04:41.664Z,97618.70
2019-05-03T06:08:55.482Z,97628.97
2019-05-03T06:13:20.954Z,97641.24
2019-05-03T06:17:45.064Z,97652.75
2019-05-03T06:22:05.133Z,97650.97
2019-05-03T06:26:28.713Z,97659.90
2019-05-03T06:30:39.030Z,97660.80
2019-05-03T06:34:45.513Z,97663.09
2019-05-03T06:38:51.409Z,97664.33
2019-05-03T06:43:08.379Z,97668.31
2019-05-03T06:47:08.714Z,97678.92
2019-05-03T06:51:19.253Z,97671.34
2019-05-03T06:55:19.451Z,97666.80
2019-05-03T06:59:32.659Z,97676.52
2019-05-03T07:03:51.511Z,97680.94
2019-05-03T07:07:58.838Z,97688.23
2019-05-03T07:12:04.764Z,97690.78
2019-05-03T07:16:10.463Z,97693.20
2019-05-03T07:20:16.211Z,97698.81
2019-05-03T07:24:21.971Z,97705.49
2019-05-03T07:28:27.722Z,97711.40
2019-05-03T07:32:34.814Z,97718.31
2019-05-03T07:36:40.566Z,97716.22
2019-05-03T07:40:46.319Z,97714.86
2019-05-03T07:44:51.986Z,97717.98
2019-05-03T07:48:57.682Z,97719.59
2019-05-03T07:53:04.666Z,97723.88
2019-05-03T07:57:29.862Z,97716.58
2019-05-03T08:01:39.969Z,97711.84
2019-05-03T08:05:45.990Z,97707.80
2019-05-03T08:09:51.675Z,97706.92
2019-05-03T08:13:57.371Z,97710.60
2019-05-03T08:18:04.821Z,97711.69
2019-05-03T08:22:10.640Z,97715.64
2019-05-03T08:26:16.459Z,97708.56
2019-05-03T08:30:26.849Z,97705.33
2019-05-03T08:34:36.823Z,97709.20
2019-05-03T08:38:42.491Z,97709.41
2019-05-03T08:42:48.175Z,97709.36
2019-05-03T08:46:56.278Z,97710.95
2019-05-03T08:51:04.489Z,97717.40
2019-05-03T08:55:11.852Z,97711.23
2019-05-03T08:59:28.776Z,97724.53
2019-05-03T09:03:25.077Z,97717.56
2019-05-03T09:07:30.765Z,97714.59
2019-05-03T09:11:36.993Z,97712.71
2019-05-03T09:15:44.652Z,97710.42
2019-05-03T09:19:50.357Z,97713.77
2019-05-03T09:23:56.076Z,97709.79
2019-05-03T09:28:01.830Z,97717.42
2019-05-03T09:32:07.650Z,97716.39
2019-05-03T09:36:14.722Z,97714.52
2019-05-03T09:40:21.707Z,97721.33
2019-05-03T09:44:27.385Z,97718.59
2019-05-03T09:48:34.686Z,97721.34
2019-05-03T09:52:40.532Z,97710.85
2019-05-03T09:56:59.162Z,97705.14
2019-05-03T10:01:08.334Z,97707.67
2019-05-03T10:05:12.936Z,97702.55
2019-05-03T10:09:18.861Z,97702.67
2019-05-03T10:13:27.203Z,97696.73
2019-05-03T10:17:35.114Z,97701.46
2019-05-03T10:21:44.798Z,97698.55
2019-05-03T10:25:50.235Z,97702.16
2019-05-03T10:30:09.074Z,97699.16
2019-05-03T10:34:05.799Z,97692.91
2019-05-03T10:38:11.664Z,97693.27
2019-05-03T10:42:17.356Z,97693.60
2019-05-03T10:46:24.934Z,97688.99
2019-05-03T10:50:31.459Z,97687.93
2019-05-03T10:54:37.170Z,97693.91
2019-05-03T10:58:45.270Z,97694.41
2019-05-03T11:02:54.956Z,97684.47
2019-05-03T11:07:00.103Z,97690.84
2019-05-03T11:11:06.020Z,97686.05
2019-05-03T11:15:12.381Z,97679.90
2019-05-03T11:19:18.113Z,97679.44
2019-05-03T11:23:25.184Z,97669.34
2019-05-03T11:27:32.675Z,97662.59
2019-05-03T11:31:55.862Z,97660.65
2019-05-03T11:40:40.757Z,97650.14
2019-05-03T11:44:46.432Z,97646.31
2019-05-03T11:48:52.115Z,97647.22
2019-05-03T11:52:57.796Z,97649.23
2019-05-03T11:57:05.433Z,97657.57
2019-05-03T12:01:18.884Z,97658.77
2019-05-03T12:40:59.577Z,97622.98
2019-05-03T12:45:06.786Z,97614.14
2019-05-03T12:50:07.953Z,97610.02
2019-05-03T12:54:15.227Z,97615.02
2019-05-03T12:58:22.609Z,97609.73
2019-05-03T13:02:35.346Z,97608.91
2019-05-03T13:06:45.393Z,97602.00
2019-05-03T13:10:51.124Z,97588.42
2019-05-03T13:14:56.806Z,97590.66
2019-05-03T13:19:02.497Z,97579.50
2019-05-03T13:23:08.244Z,97580.90
2019-05-03T13:27:14.921Z,97575.94
2019-05-03T13:31:20.641Z,97564.38
2019-05-03T13:35:26.330Z,97574.20
2019-05-03T13:39:32.007Z,97564.96
2019-05-03T13:43:37.836Z,97564.67
2019-05-03T13:47:44.752Z,97562.30
2019-05-03T13:51:50.494Z,97553.42
2019-05-03T13:55:56.218Z,97540.19
2019-05-03T14:00:02.062Z,97531.23
2019-05-03T14:04:07.797Z,97540.41
2019-05-03T14:08:15.624Z,97533.13
2019-05-03T14:12:20.877Z,97538.73
2019-05-03T14:16:26.584Z,97541.47
2019-05-03T14:20:49.760Z,97534.92
2019-05-03T14:24:55.426Z,97530.09
2019-05-03T14:29:01.203Z,97536.30
2019-05-03T14:33:06.930Z,97530.54
2019-05-03T14:37:12.687Z,97529.10
2019-05-03T14:41:18.438Z,97532.06
2019-05-03T14:45:25.534Z,97513.59
2019-05-03T14:49:31.346Z,97522.78
2019-05-03T14:53:38.008Z,97528.16
2019-05-03T14:57:45.337Z,97529.06
2019-05-03T15:01:58.407Z,97524.01
2019-05-03T15:06:05.209Z,97525.88
2019-05-03T15:10:11.466Z,97538.95
2019-05-03T15:14:17.237Z,97538.84
2019-05-03T15:18:22.917Z,97532.52
2019-05-03T15:22:28.627Z,97538.44
2019-05-03T15:26:35.624Z,97532.73
2019-05-03T15:30:41.504Z,97532.73
2019-05-03T15:34:55.290Z,97530.64
2019-05-03T15:39:00.754Z,97536.52
2019-05-03T15:43:09.756Z,97526.89
2019-05-03T15:47:25.387Z,97531.87
2019-05-03T15:51:31.094Z,97530.23
2019-05-03T15:55:36.778Z,97526.27
2019-05-03T15:59:44.403Z,97533.17
2019-05-03T16:03:49.817Z,97531.56
2019-05-03T16:07:55.504Z,97533.17
